createdAt,value
2018-09-06T00:00:34.377Z,8.63
2018-09-06T00:01:40.517Z,7.68
2018-09-06T00:02:47.397Z,7.85
2018-09-06T00:03:53.963Z,7.68
2018-09-06T00:05:00.538Z,8.73
2018-09-06T00:06:07.115Z,9.88
2018-09-06T00:07:12.669Z,8.07
2018-09-06T00:08:19.402Z,7.15
2018-09-06T00:09:25.954Z,6.75
2018-09-06T00:10:32.443Z,7.72
2018-09-06T00:11:38.830Z,7.30
2018-09-06T00:12:45.241Z,7.18
2018-09-06T00:13:52.150Z,9.10
2018-09-06T00:14:59.399Z,7.40
2018-09-06T00:16:05.918Z,6.62
2018-09-06T00:17:12.066Z,8.50
2018-09-06T00:18:18.568Z,8.63
2018-09-06T00:19:25.295Z,8.85
2018-09-06T00:20:32.281Z,9.50
2018-09-06T00:21:38.658Z,9.40
2018-09-06T00:22:44.832Z,7.07
2018-09-06T00:23:50.897Z,7.95
2018-09-06T00:24:57.243Z,7.97
2018-09-06T00:26:03.661Z,8.05
2018-09-06T00:27:10.385Z,9.45
2018-09-06T00:28:17.008Z,8.25
2018-09-06T00:29:23.030Z,7.97
2018-09-06T00:30:29.436Z,8.88
2018-09-06T00:31:38.317Z,7.50
2018-09-06T00:32:44.729Z,8.60
2018-09-06T00:33:51.021Z,9.45
2018-09-06T00:34:57.333Z,7.53
2018-09-06T00:36:04.076Z,8.50
2018-09-06T00:37:10.893Z,8.18
2018-09-06T00:38:17.286Z,7.12
2018-09-06T00:39:23.653Z,8.98
2018-09-06T00:40:30.670Z,7.28
2018-09-06T00:41:37.129Z,8.93
2018-09-06T00:42:44.106Z,9.68
2018-09-06T00:43:50.544Z,9.20
2018-09-06T00:44:56.923Z,10.57
2018-09-06T00:46:02.777Z,8.40
2018-09-06T00:47:09.444Z,9.35
2018-09-06T00:48:15.632Z,8.02
2018-09-06T00:49:22.059Z,10.05
2018-09-06T00:50:28.120Z,7.82
2018-09-06T00:51:34.792Z,8.98
2018-09-06T00:52:41.310Z,9.02
2018-09-06T00:53:47.737Z,10.00
2018-09-06T00:54:53.755Z,8.13
2018-09-06T00:56:00.453Z,9.77
2018-09-06T00:57:06.131Z,10.65
2018-09-06T00:58:12.558Z,11.02
2018-09-06T00:59:18.752Z,8.48
2018-09-06T01:00:24.874Z,9.95
2018-09-06T01:01:29.355Z,8.82
2018-09-06T01:02:34.638Z,9.70
2018-09-06T01:03:41.991Z,9.48
2018-09-06T01:04:47.980Z,8.63
2018-09-06T01:05:54.764Z,9.50
2018-09-06T01:07:01.211Z,10.35
2018-09-06T01:08:08.516Z,11.48
2018-09-06T01:09:14.659Z,10.13
2018-09-06T01:10:20.894Z,9.57
2018-09-06T01:11:27.385Z,10.82
2018-09-06T01:12:33.676Z,8.95
2018-09-06T01:13:39.706Z,8.95
2018-09-06T01:14:46.084Z,10.65
2018-09-06T01:15:52.191Z,10.10
2018-09-06T01:16:58.518Z,9.45
2018-09-06T01:18:04.970Z,10.35
2018-09-06T01:19:11.339Z,10.75
2018-09-06T01:20:17.491Z,10.88
2018-09-06T01:21:23.660Z,9.85
2018-09-06T01:22:30.103Z,8.60
2018-09-06T01:23:36.188Z,8.73
2018-09-06T01:24:42.571Z,8.63
2018-09-06T01:25:49.749Z,8.95
2018-09-06T01:26:56.013Z,11.07
2018-09-06T01:28:02.328Z,14.05
2018-09-06T01:29:08.627Z,9.80
2018-09-06T01:30:15.079Z,9.93
2018-09-06T01:31:22.015Z,8.70
2018-09-06T01:32:27.873Z,9.93
2018-09-06T01:33:33.435Z,8.25
2018-09-06T01:34:39.734Z,9.57
2018-09-06T01:35:46.004Z,9.98
2018-09-06T01:36:52.459Z,10.80
2018-09-06T01:37:59.060Z,9.85
2018-09-06T01:39:04.981Z,9.15
2018-09-06T01:40:11.252Z,9.07
2018-09-06T01:41:17.697Z,10.20
2018-09-06T01:42:24.105Z,10.43
2018-09-06T01:43:31.421Z,9.95
2018-09-06T01:44:37.084Z,9.98
2018-09-06T01:45:42.940Z,9.82
2018-09-06T01:46:49.076Z,10.20
2018-09-06T01:47:55.761Z,12.30
2018-09-06T01:49:02.048Z,10.30
2018-09-06T01:50:07.773Z,10.27
2018-09-06T01:51:14.621Z,10.15
2018-09-06T01:52:21.424Z,9.45
2018-09-06T01:53:27.842Z,9.80
2018-09-06T01:54:34.376Z,8.73
2018-09-06T01:55:40.891Z,12.52
2018-09-06T01:56:48.598Z,10.05
2018-09-06T01:57:55.154Z,10.40
2018-09-06T01:59:01.491Z,11.52
2018-09-06T02:00:07.369Z,11.07
2018-09-06T02:01:13.796Z,10.80
2018-09-06T02:02:20.405Z,11.70
2018-09-06T02:03:26.471Z,10.15
2018-09-06T02:04:32.923Z,10.30
2018-09-06T02:05:39.128Z,11.50
2018-09-06T02:06:45.649Z,9.27
2018-09-06T02:07:51.761Z,10.23
2018-09-06T02:08:57.897Z,9.07
2018-09-06T02:10:03.669Z,9.55
2018-09-06T02:11:09.772Z,13.65
2018-09-06T02:12:15.979Z,11.38
2018-09-06T02:13:22.180Z,10.13
2018-09-06T02:14:28.591Z,10.32
2018-09-06T02:15:35.403Z,10.57
2018-09-06T02:16:41.736Z,9.65
2018-09-06T02:17:48.417Z,11.10
2018-09-06T02:18:55.285Z,10.25
2018-09-06T02:20:01.565Z,9.82
2018-09-06T02:21:07.584Z,10.05
2018-09-06T02:22:14.003Z,11.32
2018-09-06T02:23:20.418Z,10.15
2018-09-06T02:24:26.620Z,10.38
2018-09-06T02:25:33.496Z,11.43
2018-09-06T02:26:39.889Z,9.02
2018-09-06T02:27:46.274Z,10.10
2018-09-06T02:28:52.677Z,9.40
2018-09-06T02:29:59.096Z,10.75
2018-09-06T02:31:06.030Z,10.63
2018-09-06T02:32:12.416Z,10.70
2018-09-06T02:33:18.871Z,9.23
2018-09-06T02:34:25.669Z,12.20
2018-09-06T02:35:32.106Z,11.80
2018-09-06T02:36:38.871Z,10.38
2018-09-06T02:37:45.528Z,8.88
2018-09-06T02:38:51.973Z,10.10
2018-09-06T02:39:58.676Z,10.20
2018-09-06T02:41:05.132Z,9.50
2018-09-06T02:42:11.625Z,10.10
2018-09-06T02:43:18.346Z,9.70
2018-09-06T02:44:24.899Z,9.60
2018-09-06T02:45:31.274Z,9.88
2018-09-06T02:46:37.500Z,10.00
2018-09-06T02:47:43.599Z,13.25
2018-09-06T02:48:49.791Z,11.25
2018-09-06T02:49:56.579Z,10.63
2018-09-06T02:51:19.827Z,11.23
2018-09-06T02:52:26.003Z,12.95
2018-09-06T02:53:32.502Z,8.80
2018-09-06T02:54:39.171Z,11.93
2018-09-06T02:55:45.220Z,11.52
2018-09-06T02:56:51.701Z,10.38
2018-09-06T02:57:57.900Z,12.40
2018-09-06T02:59:03.931Z,14.05
2018-09-06T03:00:10.424Z,10.35
2018-09-06T03:01:16.513Z,11.52
2018-09-06T03:02:22.203Z,10.65
2018-09-06T03:03:29.290Z,13.77
2018-09-06T03:04:35.683Z,14.15
2018-09-06T03:05:42.187Z,11.02
2018-09-06T03:06:48.918Z,11.82
2018-09-06T03:07:55.735Z,11.30
2018-09-06T03:09:02.145Z,10.57
2018-09-06T03:10:08.120Z,11.30
2018-09-06T03:11:14.430Z,10.63
2018-09-06T03:12:20.716Z,11.73
2018-09-06T03:13:27.292Z,14.27
2018-09-06T03:14:33.672Z,14.35
2018-09-06T03:15:40.268Z,13.32
2018-09-06T03:16:46.743Z,12.75
2018-09-06T03:17:52.893Z,16.02
2018-09-06T03:18:59.178Z,11.88
2018-09-06T03:20:05.007Z,13.48
2018-09-06T03:21:11.680Z,11.65
2018-09-06T03:22:17.924Z,15.55
2018-09-06T03:23:24.612Z,11.73
2018-09-06T03:24:30.923Z,11.15
2018-09-06T03:25:36.692Z,16.17
2018-09-06T03:26:42.829Z,12.98
2018-09-06T03:27:49.246Z,13.00
2018-09-06T03:28:55.843Z,13.75
2018-09-06T03:30:02.244Z,12.40
2018-09-06T03:31:08.591Z,13.07
2018-09-06T03:32:14.895Z,11.90
2018-09-06T03:33:21.161Z,11.95
2018-09-06T03:34:27.481Z,13.32
2018-09-06T03:35:34.044Z,14.73
2018-09-06T03:36:40.385Z,13.98
2018-09-06T03:37:46.550Z,13.85
2018-09-06T03:38:52.616Z,16.00
2018-09-06T03:39:59.091Z,14.90
2018-09-06T03:41:06.136Z,14.65
2018-09-06T03:42:12.515Z,14.32
2018-09-06T03:43:18.753Z,13.18
2018-09-06T03:44:25.633Z,13.20
2018-09-06T03:45:32.798Z,15.30
2018-09-06T03:46:39.519Z,14.57
2018-09-06T03:47:46.234Z,12.68
2018-09-06T03:48:52.683Z,15.13
2018-09-06T03:49:59.380Z,12.65
2018-09-06T03:51:05.933Z,16.62
2018-09-06T03:52:12.186Z,14.02
2018-09-06T03:53:18.598Z,13.27
2018-09-06T03:54:25.266Z,15.45
2018-09-06T03:55:31.624Z,15.30
2018-09-06T03:56:38.042Z,15.00
2018-09-06T03:57:44.919Z,17.10
2018-09-06T03:58:51.601Z,15.68
2018-09-06T03:59:57.839Z,12.48
2018-09-06T04:01:04.341Z,15.52
2018-09-06T04:02:10.937Z,12.80
2018-09-06T04:03:17.340Z,12.32
2018-09-06T04:04:23.796Z,11.90
2018-09-06T04:05:30.210Z,13.65
2018-09-06T04:06:36.630Z,13.25
2018-09-06T04:07:43.041Z,15.20
2018-09-06T04:08:49.672Z,14.40
2018-09-06T04:09:55.976Z,13.02
2018-09-06T04:11:02.590Z,13.50
2018-09-06T04:12:09.233Z,12.90
2018-09-06T04:13:15.606Z,12.95
2018-09-06T04:14:21.891Z,13.07
2018-09-06T04:15:28.318Z,13.02
2018-09-06T04:16:35.100Z,14.07
2018-09-06T04:17:41.552Z,13.60
2018-09-06T04:18:47.904Z,15.10
2018-09-06T04:19:54.717Z,13.20
2018-09-06T04:21:01.004Z,15.80
2018-09-06T04:22:07.338Z,14.25
2018-09-06T04:23:13.528Z,14.00
2018-09-06T04:24:20.429Z,14.40
2018-09-06T04:25:27.066Z,13.75
2018-09-06T04:26:33.492Z,13.15
2018-09-06T04:27:40.024Z,13.75
2018-09-06T04:28:46.411Z,13.15
2018-09-06T04:29:52.954Z,15.82
2018-09-06T04:30:59.370Z,14.15
2018-09-06T04:32:06.275Z,11.85
2018-09-06T04:33:13.171Z,13.50
2018-09-06T04:34:19.634Z,15.68
2018-09-06T04:35:26.041Z,13.27
2018-09-06T04:36:33.384Z,15.10
2018-09-06T04:37:40.027Z,13.43
2018-09-06T04:38:46.237Z,16.15
2018-09-06T04:39:52.560Z,13.48
2018-09-06T04:40:59.559Z,13.30
2018-09-06T04:42:05.968Z,14.32
2018-09-06T04:43:12.459Z,13.52
2018-09-06T04:44:18.627Z,14.52
2018-09-06T04:45:25.519Z,15.18
2018-09-06T04:46:32.233Z,12.88
2018-09-06T04:47:38.480Z,15.63
2018-09-06T04:48:45.594Z,22.23
2018-09-06T04:49:52.069Z,13.82
2018-09-06T04:50:58.408Z,14.48
2018-09-06T04:52:04.716Z,13.55
2018-09-06T04:53:11.160Z,17.05
2018-09-06T04:54:17.650Z,12.43
2018-09-06T04:55:24.321Z,16.98
2018-09-06T04:56:31.411Z,14.65
2018-09-06T04:57:38.203Z,13.32
2018-09-06T04:58:44.510Z,17.35
2018-09-06T04:59:50.921Z,14.48
2018-09-06T05:00:57.377Z,12.70
2018-09-06T05:02:03.757Z,13.70
2018-09-06T05:03:10.226Z,15.05
2018-09-06T05:04:16.613Z,16.58
2018-09-06T05:05:23.222Z,15.07
2018-09-06T05:06:29.538Z,14.10
2018-09-06T05:07:35.952Z,13.43
2018-09-06T05:08:42.843Z,14.50
2018-09-06T05:09:49.301Z,15.02
2018-09-06T05:10:56.218Z,13.32
2018-09-06T05:12:02.606Z,17.45
2018-09-06T05:13:09.048Z,19.90
2018-09-06T05:14:15.484Z,14.48
2018-09-06T05:15:21.411Z,16.40
2018-09-06T05:16:27.855Z,17.40
2018-09-06T05:17:34.186Z,17.00
2018-09-06T05:18:40.601Z,16.70
2018-09-06T05:19:47.107Z,20.75
2018-09-06T05:20:53.276Z,18.10
2018-09-06T05:21:59.839Z,17.98
2018-09-06T05:23:06.469Z,20.95
2018-09-06T05:24:12.846Z,21.42
2018-09-06T05:25:18.934Z,17.85
2018-09-06T05:26:25.387Z,17.92
2018-09-06T05:27:31.789Z,22.67
2018-09-06T05:28:38.239Z,16.98
2018-09-06T05:29:44.617Z,18.40
2018-09-06T05:30:50.978Z,22.87
2018-09-06T05:31:57.578Z,17.80
2018-09-06T05:33:03.980Z,18.17
2018-09-06T05:34:10.363Z,28.98
2018-09-06T05:35:16.845Z,17.83
2018-09-06T05:36:23.472Z,18.90
2018-09-06T05:37:30.030Z,21.08
2018-09-06T05:38:36.464Z,19.45
2018-09-06T05:39:42.794Z,21.10
2018-09-06T05:40:49.183Z,20.65
2018-09-06T05:41:55.596Z,20.35
2018-09-06T05:43:02.038Z,19.90
2018-09-06T05:44:08.318Z,20.30
2018-09-06T05:45:14.627Z,18.83
2018-09-06T05:46:20.809Z,21.42
2018-09-06T05:47:27.484Z,18.95
2018-09-06T05:48:33.881Z,23.00
2018-09-06T05:49:40.247Z,19.02
2018-09-06T05:50:46.599Z,20.48
2018-09-06T05:51:52.935Z,20.25
2018-09-06T05:52:59.352Z,19.83
2018-09-06T05:54:05.600Z,20.00
2018-09-06T05:55:11.939Z,25.12
2018-09-06T05:56:18.339Z,20.33
2018-09-06T05:57:26.992Z,20.05
2018-09-06T05:58:33.008Z,24.52
2018-09-06T05:59:39.337Z,21.15
2018-09-06T06:00:45.634Z,23.15
2018-09-06T06:01:51.788Z,19.90
2018-09-06T06:02:57.883Z,21.00
2018-09-06T06:04:04.276Z,19.00
2018-09-06T06:05:10.760Z,20.45
2018-09-06T06:06:17.413Z,19.77
2018-09-06T06:07:23.165Z,22.15
2018-09-06T06:08:37.873Z,22.83
2018-09-06T06:09:44.146Z,22.50
2018-09-06T06:10:50.213Z,20.92
2018-09-06T06:11:56.752Z,20.98
2018-09-06T06:13:03.302Z,24.42
2018-09-06T06:14:09.697Z,19.02
2018-09-06T06:15:15.808Z,24.63
2018-09-06T06:16:22.200Z,20.55
2018-09-06T06:17:28.308Z,23.73
2018-09-06T06:18:34.685Z,20.77
2018-09-06T06:19:40.864Z,19.37
2018-09-06T06:20:46.927Z,21.20
2018-09-06T06:21:53.391Z,22.62
2018-09-06T06:22:59.777Z,19.45
2018-09-06T06:24:05.493Z,21.15
2018-09-06T06:25:11.641Z,20.90
2018-09-06T06:26:18.123Z,21.67
2018-09-06T06:27:24.540Z,21.73
2018-09-06T06:28:30.965Z,20.90
2018-09-06T06:29:37.133Z,20.58
2018-09-06T06:30:43.231Z,20.85
2018-09-06T06:31:49.556Z,21.17
2018-09-06T06:32:55.522Z,20.45
2018-09-06T06:34:02.021Z,21.33
2018-09-06T06:35:08.701Z,21.27
2018-09-06T06:36:15.007Z,19.80
2018-09-06T06:37:21.370Z,21.70
2018-09-06T06:38:27.396Z,19.40
2018-09-06T06:39:33.853Z,22.27
2018-09-06T06:40:40.172Z,21.05
2018-09-06T06:41:46.469Z,24.10
2018-09-06T06:42:52.784Z,21.30
2018-09-06T06:43:59.125Z,21.33
2018-09-06T06:45:04.505Z,20.88
2018-09-06T06:46:11.011Z,19.27
2018-09-06T06:47:17.416Z,19.92
2018-09-06T06:48:23.759Z,21.58
2018-09-06T06:49:30.167Z,19.52
2018-09-06T06:50:36.340Z,19.48
2018-09-06T06:51:42.791Z,20.55
2018-09-06T06:52:49.174Z,21.90
2018-09-06T06:53:55.382Z,19.33
2018-09-06T06:55:01.839Z,21.75
2018-09-06T06:56:08.407Z,18.83
2018-09-06T06:57:14.739Z,18.40
2018-09-06T06:58:21.174Z,20.33
2018-09-06T06:59:27.557Z,20.35
2018-09-06T07:00:33.777Z,20.62
2018-09-06T07:01:40.092Z,18.30
2018-09-06T07:02:46.382Z,19.42
2018-09-06T07:03:52.499Z,23.48
2018-09-06T07:04:58.913Z,17.10
2018-09-06T07:06:05.333Z,19.87
2018-09-06T07:07:11.702Z,21.42
2018-09-06T07:08:18.256Z,20.02
2018-09-06T07:09:24.688Z,18.98
2018-09-06T07:10:31.010Z,20.52
2018-09-06T07:11:37.282Z,18.85
2018-09-06T07:12:43.882Z,20.73
2018-09-06T07:13:50.351Z,19.40
2018-09-06T07:14:56.653Z,18.50
2018-09-06T07:16:03.273Z,20.48
2018-09-06T07:17:09.672Z,20.37
2018-09-06T07:18:15.935Z,18.60
2018-09-06T07:19:22.412Z,21.02
2018-09-06T07:20:28.733Z,18.70
2018-09-06T07:21:34.815Z,22.35
2018-09-06T07:22:41.276Z,19.70
2018-09-06T07:23:47.673Z,19.40
2018-09-06T07:24:53.986Z,18.77
2018-09-06T07:26:00.282Z,18.17
2018-09-06T07:27:06.335Z,19.10
2018-09-06T07:28:12.745Z,19.00
2018-09-06T07:29:18.954Z,18.48
2018-09-06T07:30:25.388Z,19.30
2018-09-06T07:31:31.938Z,20.17
2018-09-06T07:32:38.320Z,19.30
2018-09-06T07:33:44.757Z,18.83
2018-09-06T07:34:51.069Z,21.10
2018-09-06T07:35:57.490Z,22.30
2018-09-06T07:37:04.408Z,20.85
2018-09-06T07:38:10.822Z,18.65
2018-09-06T07:39:17.256Z,17.92
2018-09-06T07:40:23.582Z,18.48
2018-09-06T07:41:29.571Z,17.87
2018-09-06T07:42:36.197Z,18.25
2018-09-06T07:43:42.613Z,21.58
2018-09-06T07:44:48.926Z,17.80
2018-09-06T07:45:55.222Z,17.95
2018-09-06T07:47:01.540Z,17.00
2018-09-06T07:48:07.840Z,16.40
2018-09-06T07:49:14.305Z,17.80
2018-09-06T07:50:20.708Z,16.70
2018-09-06T07:51:27.165Z,16.05
2018-09-06T07:52:33.700Z,15.55
2018-09-06T07:53:40.076Z,15.82
2018-09-06T07:54:46.531Z,14.60
2018-09-06T07:55:52.849Z,15.05
2018-09-06T07:56:59.263Z,16.48
2018-09-06T07:58:05.352Z,16.48
2018-09-06T07:59:11.451Z,16.55
2018-09-06T08:00:18.093Z,15.25
2018-09-06T08:01:24.510Z,16.00
2018-09-06T08:02:30.928Z,15.65
2018-09-06T08:03:37.107Z,14.60
2018-09-06T08:04:43.691Z,14.35
2018-09-06T08:05:49.997Z,13.50
2018-09-06T08:06:55.944Z,14.68
2018-09-06T08:08:02.413Z,14.52
2018-09-06T08:09:08.689Z,22.13
2018-09-06T08:10:14.887Z,15.07
2018-09-06T08:11:21.888Z,14.55
2018-09-06T08:12:28.146Z,14.75
2018-09-06T08:13:34.453Z,15.73
2018-09-06T08:14:41.575Z,14.65
2018-09-06T08:15:48.001Z,18.25
2018-09-06T08:16:54.857Z,15.23
2018-09-06T08:18:01.228Z,15.88
2018-09-06T08:19:07.326Z,13.93
2018-09-06T08:20:13.562Z,14.75
2018-09-06T08:21:20.008Z,13.50
2018-09-06T08:22:26.432Z,14.52
2018-09-06T08:23:32.100Z,16.02
2018-09-06T08:24:39.252Z,14.20
2018-09-06T08:25:45.637Z,13.32
2018-09-06T08:26:51.787Z,13.27
2018-09-06T08:27:58.248Z,12.77
2018-09-06T08:29:03.987Z,13.88
2018-09-06T08:30:09.974Z,13.15
2018-09-06T08:31:16.434Z,15.15
2018-09-06T08:32:22.804Z,14.25
2018-09-06T08:33:29.136Z,13.10
2018-09-06T08:34:35.544Z,13.13
2018-09-06T08:35:41.941Z,12.70
2018-09-06T08:36:48.359Z,12.23
2018-09-06T08:37:54.683Z,12.80
2018-09-06T08:39:01.074Z,12.73
2018-09-06T08:40:07.003Z,15.18
2018-09-06T08:41:13.428Z,12.68
2018-09-06T08:42:19.442Z,14.55
2018-09-06T08:43:25.528Z,19.12
2018-09-06T08:44:31.938Z,12.37
2018-09-06T08:45:38.355Z,11.90
2018-09-06T08:46:44.632Z,14.10
2018-09-06T08:47:50.722Z,12.05
2018-09-06T08:48:56.702Z,14.05
2018-09-06T08:50:03.204Z,14.20
2018-09-06T08:51:09.285Z,15.65
2018-09-06T08:52:15.880Z,12.77
2018-09-06T08:53:22.154Z,11.63
2018-09-06T08:54:28.651Z,12.48
2018-09-06T08:55:34.817Z,11.15
2018-09-06T08:56:41.141Z,11.88
2018-09-06T08:57:47.969Z,12.48
2018-09-06T08:58:54.379Z,12.55
2018-09-06T09:00:00.159Z,12.90
2018-09-06T09:01:06.892Z,11.70
2018-09-06T09:02:12.900Z,10.57
2018-09-06T09:03:19.491Z,11.45
2018-09-06T09:04:26.074Z,11.50
2018-09-06T09:05:32.180Z,10.25
2018-09-06T09:06:38.289Z,11.50
2018-09-06T09:07:44.800Z,11.20
2018-09-06T09:08:51.223Z,10.75
2018-09-06T09:09:57.709Z,12.20
2018-09-06T09:11:04.839Z,11.05
2018-09-06T09:12:11.282Z,10.50
2018-09-06T09:13:17.406Z,10.55
2018-09-06T09:14:23.981Z,11.27
2018-09-06T09:15:30.424Z,11.77
2018-09-06T09:16:35.897Z,11.23
2018-09-06T09:17:42.000Z,12.27
2018-09-06T09:18:48.409Z,10.93
2018-09-06T09:19:54.824Z,10.43
2018-09-06T09:21:01.263Z,10.40
2018-09-06T09:22:07.726Z,10.68
2018-09-06T09:23:13.895Z,12.32
2018-09-06T09:24:20.020Z,11.52
2018-09-06T09:25:26.071Z,9.98
2018-09-06T09:26:32.841Z,10.00
2018-09-06T09:27:38.639Z,10.20
2018-09-06T09:28:44.433Z,12.05
2018-09-06T09:29:50.915Z,9.43
2018-09-06T09:30:57.288Z,9.43
2018-09-06T09:32:03.650Z,9.48
2018-09-06T09:33:09.737Z,10.50
2018-09-06T09:34:16.147Z,10.48
2018-09-06T09:35:22.132Z,10.20
2018-09-06T09:36:27.839Z,10.02
2018-09-06T09:37:34.006Z,10.70
2018-09-06T09:38:39.953Z,9.75
2018-09-06T09:39:46.599Z,10.27
2018-09-06T09:40:52.642Z,9.40
2018-09-06T09:41:58.638Z,10.15
2018-09-06T09:43:05.014Z,10.32
2018-09-06T09:44:11.334Z,10.32
2018-09-06T09:45:17.761Z,10.23
2018-09-06T09:48:33.760Z,11.10
2018-09-06T09:49:40.224Z,9.38
2018-09-06T09:51:51.903Z,11.77
2018-09-06T09:52:58.217Z,13.15
2018-09-06T09:54:04.185Z,9.93
2018-09-06T09:55:10.601Z,10.13
2018-09-06T09:56:16.209Z,10.32
2018-09-06T09:57:22.574Z,10.05
2018-09-06T09:58:28.981Z,9.27
2018-09-06T09:59:35.287Z,10.13
2018-09-06T10:00:41.643Z,10.32
2018-09-06T10:01:47.814Z,8.52
2018-09-06T10:02:53.988Z,9.23
2018-09-06T10:05:35.264Z,9.20
2018-09-06T10:06:41.109Z,8.70
2018-09-06T10:07:53.000Z,9.35
2018-09-06T10:08:59.233Z,10.88
2018-09-06T10:10:04.731Z,10.10
2018-09-06T10:11:10.541Z,9.40
2018-09-06T10:12:16.752Z,8.77
2018-09-06T10:13:22.459Z,9.57
2018-09-06T10:14:28.853Z,9.55
2018-09-06T10:15:34.707Z,9.65
2018-09-06T10:16:40.683Z,9.18
2018-09-06T10:17:46.726Z,8.98
2018-09-06T10:18:52.657Z,10.38
2018-09-06T10:19:59.084Z,11.25
2018-09-06T10:21:05.382Z,11.80
2018-09-06T10:22:11.410Z,9.70
2018-09-06T10:23:17.793Z,8.30
2018-09-06T10:24:23.781Z,9.77
2018-09-06T10:25:29.773Z,9.15
2018-09-06T10:26:35.615Z,11.50
2018-09-06T10:27:41.669Z,9.63
2018-09-06T10:28:48.012Z,9.05
2018-09-06T10:29:53.917Z,8.32
2018-09-06T10:30:59.921Z,10.15
2018-09-06T10:32:06.223Z,8.65
2018-09-06T10:33:12.293Z,10.30
2018-09-06T10:34:18.972Z,11.00
2018-09-06T10:35:24.239Z,8.47
2018-09-06T10:36:30.394Z,15.07
2018-09-06T10:37:36.510Z,9.20
2018-09-06T10:38:42.553Z,9.27
2018-09-06T10:39:48.622Z,9.65
2018-09-06T10:40:54.908Z,8.67
2018-09-06T10:42:00.722Z,9.03
2018-09-06T10:43:06.168Z,9.37
2018-09-06T10:44:11.897Z,9.20
2018-09-06T10:45:17.942Z,9.40
2018-09-06T10:46:23.933Z,8.45
2018-09-06T10:47:29.725Z,10.43
2018-09-06T10:48:35.760Z,8.85
2018-09-06T10:49:40.949Z,8.50
2018-09-06T10:50:47.159Z,9.07
2018-09-06T10:51:52.868Z,8.53
2018-09-06T10:52:59.729Z,9.00
2018-09-06T10:54:05.560Z,8.63
2018-09-06T10:55:12.274Z,9.50
2018-09-06T10:56:18.135Z,8.77
2018-09-06T10:57:24.343Z,8.80
2018-09-06T10:58:29.652Z,11.30
2018-09-06T10:59:35.028Z,8.33
2018-09-06T11:00:41.177Z,7.63
2018-09-06T11:01:47.372Z,7.93
2018-09-06T11:02:52.881Z,8.77
2018-09-06T11:03:58.537Z,8.17
2018-09-06T11:05:04.269Z,8.90
2018-09-06T11:06:10.406Z,8.20
2018-09-06T11:07:16.100Z,8.40
2018-09-06T11:08:21.887Z,8.77
2018-09-06T11:09:27.536Z,9.10
2018-09-06T11:10:33.378Z,9.03
2018-09-06T11:11:39.506Z,8.43
2018-09-06T11:12:45.539Z,8.60
2018-09-06T11:13:51.528Z,9.63
2018-09-06T11:14:57.304Z,9.43
2018-09-06T11:16:03.395Z,8.20
2018-09-06T11:17:09.547Z,8.30
2018-09-06T11:18:15.527Z,8.80
2018-09-06T11:19:21.609Z,10.30
2018-09-06T11:20:27.726Z,8.30
2018-09-06T11:21:34.297Z,9.93
2018-09-06T11:22:40.709Z,10.03
2018-09-06T11:23:47.015Z,9.00
2018-09-06T11:24:53.395Z,7.82
2018-09-06T11:25:59.191Z,8.60
2018-09-06T11:27:05.328Z,8.17
2018-09-06T11:28:11.369Z,9.30
2018-09-06T11:29:17.435Z,9.33
2018-09-06T11:30:22.851Z,8.00
2018-09-06T11:31:28.955Z,8.37
2018-09-06T11:32:34.619Z,7.90
2018-09-06T11:33:40.388Z,8.80
2018-09-06T11:34:46.542Z,9.53
2018-09-06T11:35:52.648Z,8.63
2018-09-06T11:36:58.729Z,8.65
2018-09-06T11:38:04.602Z,8.67
2018-09-06T11:39:10.805Z,10.10
2018-09-06T11:40:16.984Z,9.93
2018-09-06T11:41:22.971Z,8.37
2018-09-06T11:42:28.877Z,8.33
2018-09-06T11:43:34.509Z,8.83
2018-09-06T11:44:40.465Z,9.10
2018-09-06T11:45:46.629Z,8.57
2018-09-06T11:46:52.899Z,9.20
2018-09-06T11:47:58.893Z,9.93
2018-09-06T11:49:04.529Z,8.10
2018-09-06T11:50:10.611Z,10.23
2018-09-06T11:51:16.030Z,12.73
2018-09-06T11:52:21.581Z,10.27
2018-09-06T11:53:27.743Z,9.50
2018-09-06T11:54:33.937Z,9.90
2018-09-06T11:55:39.441Z,9.13
2018-09-06T11:56:45.525Z,8.23
2018-09-06T11:57:51.539Z,8.50
2018-09-06T11:58:58.316Z,8.47
2018-09-06T12:00:03.768Z,12.53
2018-09-06T12:01:09.257Z,9.67
2018-09-06T12:02:15.309Z,9.20
2018-09-06T12:03:21.575Z,8.53
2018-09-06T12:04:26.986Z,11.47
2018-09-06T12:05:32.920Z,9.97
2018-09-06T12:06:38.249Z,9.40
2018-09-06T12:07:43.649Z,9.27
2018-09-06T12:08:49.404Z,10.30
2018-09-06T12:09:55.155Z,9.93
2018-09-06T12:11:00.873Z,14.23
2018-09-06T12:12:06.926Z,10.30
2018-09-06T12:13:12.785Z,10.33
2018-09-06T12:14:18.759Z,12.40
2018-09-06T12:15:25.327Z,11.67
2018-09-06T12:16:37.388Z,11.20
2018-09-06T12:17:43.513Z,11.87
2018-09-06T12:18:49.221Z,11.80
2018-09-06T12:19:55.685Z,10.60
2018-09-06T12:21:01.498Z,12.90
2018-09-06T12:22:07.651Z,13.03
2018-09-06T12:23:14.121Z,9.90
2018-09-06T12:24:19.524Z,10.47
2018-09-06T12:25:25.721Z,10.40
2018-09-06T12:26:31.625Z,11.00
2018-09-06T12:27:37.767Z,11.50
2018-09-06T12:28:43.560Z,10.27
2018-09-06T12:29:48.994Z,10.17
2018-09-06T12:30:54.460Z,11.10
2018-09-06T12:32:00.632Z,10.17
2018-09-06T12:33:06.807Z,9.70
2018-09-06T12:34:12.619Z,9.33
2018-09-06T12:35:18.429Z,10.50
2018-09-06T12:36:24.662Z,11.43
2018-09-06T12:37:29.968Z,10.07
2018-09-06T12:38:35.738Z,10.47
2018-09-06T12:39:41.896Z,10.23
2018-09-06T12:40:47.864Z,9.70
2018-09-06T12:41:53.421Z,11.53
2018-09-06T12:42:59.225Z,9.80
2018-09-06T12:44:04.761Z,9.77
2018-09-06T12:45:10.790Z,11.07
2018-09-06T12:46:16.545Z,10.77
2018-09-06T12:47:22.694Z,11.73
2018-09-06T12:48:29.010Z,10.70
2018-09-06T12:49:36.721Z,13.83
2018-09-06T12:50:42.817Z,9.70
2018-09-06T12:51:48.614Z,11.90
2018-09-06T12:52:57.016Z,9.10
2018-09-06T12:54:04.667Z,10.30
2018-09-06T12:55:11.470Z,11.17
2018-09-06T12:56:18.111Z,11.30
2018-09-06T12:57:24.524Z,9.60
2018-09-06T12:58:31.448Z,10.77
2018-09-06T12:59:38.170Z,10.37
2018-09-06T13:00:44.499Z,9.80
2018-09-06T13:01:51.003Z,9.60
2018-09-06T13:02:57.516Z,11.57
2018-09-06T13:04:04.190Z,9.67
2018-09-06T13:05:10.325Z,10.70
2018-09-06T13:06:16.611Z,9.27
2018-09-06T13:07:24.325Z,10.67
2018-09-06T13:08:31.782Z,10.20
2018-09-06T13:09:39.244Z,11.57
2018-09-06T13:10:45.692Z,9.50
2018-09-06T13:11:52.384Z,11.00
2018-09-06T13:13:01.124Z,11.23
2018-09-06T13:14:10.968Z,11.07
2018-09-06T13:15:18.667Z,10.80
2018-09-06T13:16:26.096Z,10.53
2018-09-06T13:17:33.730Z,9.70
2018-09-06T13:18:40.408Z,11.10
2018-09-06T13:19:46.622Z,12.10
2018-09-06T13:20:52.360Z,10.87
2018-09-06T13:21:58.739Z,10.47
2018-09-06T13:23:05.667Z,13.20
2018-09-06T13:24:12.391Z,10.87
2018-09-06T13:25:18.360Z,9.90
2018-09-06T13:26:24.501Z,11.10
2018-09-06T13:27:31.161Z,10.17
2018-09-06T13:28:37.634Z,10.40
2018-09-06T13:29:44.459Z,9.47
2018-09-06T13:30:50.766Z,9.20
2018-09-06T13:31:57.389Z,9.00
2018-09-06T13:33:03.389Z,11.10
2018-09-06T13:34:09.812Z,10.50
2018-09-06T13:35:16.505Z,10.20
2018-09-06T13:36:23.355Z,10.17
2018-09-06T13:37:30.895Z,9.43
2018-09-06T13:38:37.516Z,9.70
2018-09-06T13:39:44.542Z,10.57
2018-09-06T13:40:51.059Z,10.00
2018-09-06T13:41:57.314Z,10.10
2018-09-06T13:43:04.909Z,10.07
2018-09-06T13:44:11.254Z,10.17
2018-09-06T13:45:17.314Z,11.70
2018-09-06T13:46:23.402Z,15.87
2018-09-06T13:47:29.525Z,10.00
2018-09-06T13:48:35.619Z,9.83
2018-09-06T13:49:41.655Z,10.40
2018-09-06T13:50:47.740Z,9.20
2018-09-06T13:51:53.552Z,9.60
2018-09-06T13:52:59.572Z,9.90
2018-09-06T13:54:05.294Z,10.37
2018-09-06T13:55:11.378Z,12.23
2018-09-06T13:56:17.207Z,9.83
2018-09-06T13:57:23.513Z,9.67
2018-09-06T13:58:29.400Z,11.10
2018-09-06T13:59:35.711Z,9.23
2018-09-06T14:00:41.669Z,9.73
2018-09-06T14:01:47.778Z,10.20
2018-09-06T14:02:53.905Z,10.80
2018-09-06T14:04:00.007Z,9.50
2018-09-06T14:05:05.702Z,9.60
2018-09-06T14:06:11.745Z,9.83
2018-09-06T14:07:17.961Z,9.43
2018-09-06T14:08:24.660Z,9.70
2018-09-06T14:09:30.878Z,10.07
2018-09-06T14:10:38.346Z,10.60
2018-09-06T14:11:45.141Z,11.83
2018-09-06T14:12:51.456Z,11.13
2018-09-06T14:13:57.865Z,9.33
2018-09-06T14:15:04.484Z,10.20
2018-09-06T14:16:10.802Z,9.97
2018-09-06T14:17:16.885Z,9.23
2018-09-06T14:18:24.240Z,9.60
2018-09-06T14:19:30.609Z,9.60
2018-09-06T14:20:36.637Z,10.07
2018-09-06T14:21:43.071Z,10.40
2018-09-06T14:22:49.486Z,9.37
2018-09-06T14:23:56.113Z,9.17
2018-09-06T14:25:02.419Z,8.83
2018-09-06T14:26:09.097Z,9.40
2018-09-06T14:27:16.474Z,9.63
2018-09-06T14:28:38.234Z,10.23